Time;durP1;ratioP1;P1;durP2;ratioP2;P2;SDS_P1;SDS_P2;PMS_P1;PMS_P2;Temp;Humidity;BMP_temperature;BMP_pressure;BME280_temperature;BME280_humidity;BME280_pressure;Samples;Min_cycle;Max_cycle;Signal;HPM_P1;HPM_P2
2021/10/07 00:01:20;;;;;;;11.75;8.07;;;12.80;98.60;;;;;;5008561;28;20026;-66
2021/10/07 00:03:45;;;;;;;11.05;7.32;;;12.70;98.70;;;;;;5003807;28;20027;-65
2021/10/07 00:06:11;;;;;;;11.52;7.82;;;12.70;98.70;;;;;;4996651;28;20027;-65
2021/10/07 00:08:36;;;;;;;10.77;7.75;;;12.60;98.80;;;;;;4992655;28;20522;-66
2021/10/07 00:11:02;;;;;;;9.48;7.70;;;12.60;98.90;;;;;;5006481;28;20561;-65
2021/10/07 00:13:28;;;;;;;9.32;7.57;;;12.60;99.00;;;;;;5011867;28;20033;-66
2021/10/07 00:15:55;;;;;;;10.95;7.90;;;12.60;99.10;;;;;;5008519;28;20033;-66
2021/10/07 00:18:20;;;;;;;9.00;7.30;;;12.60;99.10;;;;;;5011337;28;20018;-66
2021/10/07 00:20:46;;;;;;;11.15;7.10;;;12.60;99.10;;;;;;5008529;28;20084;-66
2021/10/07 00:23:14;;;;;;;10.20;7.55;;;12.60;99.00;;;;;;5011887;28;20037;-66
2021/10/07 00:25:40;;;;;;;11.20;8.23;;;12.60;99.00;;;;;;5009036;28;20497;-66
2021/10/07 00:28:09;;;;;;;9.65;6.93;;;12.50;99.10;;;;;;5011401;28;20030;-65
2021/10/07 00:30:38;;;;;;;10.18;7.65;;;12.50;99.00;;;;;;5009156;28;20026;-66
2021/10/07 00:35:44;;;;;;;11.02;7.22;;;12.50;99.20;;;;;;4995211;28;20114;-66
2021/10/07 00:40:54;;;;;;;11.45;7.13;;;12.50;99.20;;;;;;4999818;28;20044;-65
2021/10/07 00:43:20;;;;;;;8.55;6.65;;;12.50;99.10;;;;;;4994949;28;20029;-66
2021/10/07 00:45:53;;;;;;;12.40;7.15;;;12.50;99.00;;;;;;5005864;28;20052;-66
2021/10/07 00:48:19;;;;;;;8.80;7.15;;;12.40;99.00;;;;;;5011495;28;20038;-66
2021/10/07 00:50:45;;;;;;;9.68;7.25;;;12.40;99.10;;;;;;5008000;28;20022;-66
2021/10/07 00:53:12;;;;;;;11.73;7.43;;;12.40;99.00;;;;;;5009419;28;20026;-66
2021/10/07 00:55:39;;;;;;;9.40;7.50;;;12.40;99.30;;;;;;5008190;28;20514;-66
2021/10/07 00:58:04;;;;;;;11.00;6.90;;;12.40;99.10;;;;;;5011589;28;20447;-66
2021/10/07 01:00:30;;;;;;;15.73;7.47;;;12.40;99.10;;;;;;5008040;28;20123;-66
2021/10/07 01:02:55;;;;;;;10.38;6.22;;;12.40;99.00;;;;;;5010191;28;20029;-66
2021/10/07 01:05:22;;;;;;;10.50;6.80;;;12.40;99.10;;;;;;5001576;28;20030;-66
2021/10/07 01:07:48;;;;;;;10.05;7.82;;;12.30;99.20;;;;;;5007637;28;20086;-66
2021/10/07 01:10:13;;;;;;;10.27;7.63;;;12.30;99.30;;;;;;5009864;28;20046;-66
2021/10/07 01:12:38;;;;;;;8.27;5.88;;;12.30;99.40;;;;;;5010503;28;20026;-66
2021/10/07 01:15:05;;;;;;;9.98;6.78;;;12.30;99.20;;;;;;5009951;28;20072;-66
2021/10/07 01:17:31;;;;;;;12.13;7.00;;;12.30;99.20;;;;;;5009472;28;20449;-66
2021/10/07 01:20:03;;;;;;;9.52;6.88;;;12.30;99.20;;;;;;5007356;28;20134;-66
2021/10/07 01:22:29;;;;;;;10.88;7.45;;;12.30;99.30;;;;;;5011038;28;20109;-66
2021/10/07 01:24:55;;;;;;;9.23;6.53;;;12.30;99.30;;;;;;5007798;28;20113;-66
2021/10/07 01:27:23;;;;;;;9.07;7.45;;;12.30;99.20;;;;;;5011421;28;20069;-66
2021/10/07 01:29:54;;;;;;;9.05;7.10;;;12.30;99.20;;;;;;5008173;28;20060;-66
2021/10/07 01:32:20;;;;;;;10.52;6.93;;;12.20;99.10;;;;;;5007499;28;20037;-66
2021/10/07 01:34:46;;;;;;;14.75;7.45;;;12.20;99.20;;;;;;5004529;28;20022;-66
2021/10/07 01:37:11;;;;;;;15.57;8.48;;;12.20;99.20;;;;;;5014034;28;20026;-67
2021/10/07 01:39:37;;;;;;;8.05;6.60;;;12.20;99.30;;;;;;5012746;28;20025;-66
2021/10/07 01:42:02;;;;;;;9.20;6.85;;;12.20;99.30;;;;;;5006738;28;20030;-66
2021/10/07 01:44:28;;;;;;;14.77;8.50;;;12.20;99.30;;;;;;5013673;28;20049;-66
2021/10/07 01:46:53;;;;;;;10.52;7.22;;;12.10;99.30;;;;;;5003102;28;20042;-66
2021/10/07 01:49:20;;;;;;;10.75;7.68;;;12.10;99.40;;;;;;5011510;28;20076;-66
2021/10/07 01:51:45;;;;;;;10.25;7.47;;;12.10;99.40;;;;;;4994813;28;20034;-66
2021/10/07 01:54:11;;;;;;;8.57;6.68;;;12.10;99.40;;;;;;5011194;28;20060;-66
2021/10/07 01:56:36;;;;;;;9.98;7.40;;;12.10;99.30;;;;;;5013646;28;20053;-66
2021/10/07 01:59:05;;;;;;;8.00;6.53;;;12.10;99.30;;;;;;5012614;28;20289;-66
2021/10/07 02:01:31;;;;;;;12.05;7.97;;;12.00;99.30;;;;;;5008876;28;20084;-66
2021/10/07 02:03:56;;;;;;;8.57;7.38;;;12.00;99.40;;;;;;5014164;28;20026;-66
2021/10/07 02:06:22;;;;;;;9.43;7.10;;;12.00;99.30;;;;;;5009239;28;20117;-66
2021/10/07 02:08:47;;;;;;;10.27;7.15;;;12.00;99.40;;;;;;5012695;28;20041;-66
2021/10/07 02:11:13;;;;;;;11.65;7.72;;;12.00;99.50;;;;;;5012292;28;20474;-66
2021/10/07 02:13:39;;;;;;;14.85;8.63;;;12.00;99.60;;;;;;4998024;28;20033;-66
2021/10/07 02:16:04;;;;;;;15.52;7.50;;;12.00;99.60;;;;;;5007831;28;20054;-66
2021/10/07 02:18:30;;;;;;;12.38;7.65;;;11.90;99.60;;;;;;5012781;28;20071;-66
2021/10/07 02:20:55;;;;;;;13.02;8.68;;;11.90;99.70;;;;;;5007838;28;20117;-66
2021/10/07 02:23:21;;;;;;;10.50;8.50;;;11.90;99.70;;;;;;5001256;28;20028;-66
2021/10/07 02:25:46;;;;;;;9.52;6.68;;;12.00;99.80;;;;;;5005022;28;20053;-66
2021/10/07 02:28:13;;;;;;;10.38;6.63;;;11.90;99.60;;;;;;4998842;28;20104;-66
2021/10/07 02:30:40;;;;;;;9.60;6.45;;;11.90;99.60;;;;;;5004955;28;20026;-66
2021/10/07 02:33:06;;;;;;;10.95;7.18;;;11.90;99.50;;;;;;5011221;28;20045;-66
2021/10/07 02:35:32;;;;;;;10.07;7.43;;;11.90;99.50;;;;;;5000029;28;20034;-66
2021/10/07 02:37:57;;;;;;;11.70;7.75;;;11.90;99.50;;;;;;5005883;28;20057;-66
2021/10/07 02:40:23;;;;;;;14.10;8.77;;;11.90;99.50;;;;;;5006112;28;20049;-66
2021/10/07 02:42:49;;;;;;;10.88;6.70;;;11.90;99.40;;;;;;5011354;28;20034;-66
2021/10/07 02:45:16;;;;;;;10.32;7.57;;;11.90;99.40;;;;;;5008715;28;20022;-66
2021/10/07 02:47:42;;;;;;;10.70;7.30;;;11.90;99.50;;;;;;5012079;28;20042;-66
2021/10/07 02:50:09;;;;;;;11.13;7.10;;;11.80;99.50;;;;;;5011856;28;20026;-66
2021/10/07 02:52:34;;;;;;;10.60;7.05;;;11.80;99.50;;;;;;5009704;28;20034;-66
2021/10/07 02:55:00;;;;;;;8.90;7.10;;;11.80;99.50;;;;;;4998588;28;20049;-66
2021/10/07 02:57:25;;;;;;;9.95;7.63;;;11.80;99.50;;;;;;5012942;28;20395;-66
2021/10/07 02:59:51;;;;;;;13.95;7.65;;;11.80;99.50;;;;;;5006841;28;20027;-65
2021/10/07 03:02:17;;;;;;;9.68;7.10;;;11.80;99.50;;;;;;5002986;28;20045;-66
2021/10/07 03:04:45;;;;;;;9.48;6.70;;;11.80;99.40;;;;;;4996993;28;20018;-66
2021/10/07 03:07:11;;;;;;;12.57;7.60;;;11.70;99.40;;;;;;5011712;28;20096;-65
2021/10/07 03:09:38;;;;;;;11.80;6.95;;;11.70;99.50;;;;;;5010346;28;20049;-66
2021/10/07 03:12:05;;;;;;;12.77;7.40;;;11.60;99.50;;;;;;5009030;28;20449;-65
2021/10/07 03:14:30;;;;;;;12.38;7.53;;;11.70;99.50;;;;;;5011339;28;20037;-65
2021/10/07 03:16:55;;;;;;;11.05;7.15;;;11.60;99.60;;;;;;5010029;28;20025;-66
2021/10/07 03:19:21;;;;;;;11.00;7.40;;;11.50;99.60;;;;;;5008203;28;20033;-66
2021/10/07 03:21:46;;;;;;;12.80;8.15;;;11.50;99.60;;;;;;4975265;28;20472;-66
2021/10/07 03:24:12;;;;;;;12.63;6.82;;;11.60;99.60;;;;;;4996436;28;20108;-66
2021/10/07 03:26:38;;;;;;;9.05;6.65;;;11.60;99.50;;;;;;5011670;28;20454;-66
2021/10/07 03:29:03;;;;;;;13.57;7.78;;;11.60;99.50;;;;;;5011857;28;20033;-66
2021/10/07 03:31:29;;;;;;;12.10;8.18;;;11.60;99.70;;;;;;5011231;28;20022;-66
2021/10/07 03:33:55;;;;;;;10.13;7.82;;;11.60;99.60;;;;;;5006965;28;20029;-66
2021/10/07 03:36:20;;;;;;;12.48;8.48;;;11.60;99.60;;;;;;5011715;28;20490;-65
2021/10/07 03:38:46;;;;;;;9.00;6.93;;;11.50;99.60;;;;;;5010003;28;20025;-66
2021/10/07 03:41:12;;;;;;;10.10;6.85;;;11.50;99.60;;;;;;4996083;28;20414;-66
2021/10/07 03:43:37;;;;;;;8.93;6.93;;;11.50;99.60;;;;;;5005296;28;20120;-66
2021/10/07 03:46:02;;;;;;;11.35;7.55;;;11.50;99.60;;;;;;5009281;28;20029;-66
2021/10/07 03:48:28;;;;;;;11.85;6.93;;;11.50;99.60;;;;;;5006822;28;20037;-66
2021/10/07 03:50:54;;;;;;;13.00;8.50;;;11.50;99.60;;;;;;5003551;28;20026;-66
2021/10/07 03:53:19;;;;;;;12.43;7.00;;;11.50;99.60;;;;;;5005569;28;20120;-66
2021/10/07 03:55:45;;;;;;;12.95;8.13;;;11.50;99.50;;;;;;5002432;28;20029;-66
2021/10/07 03:58:10;;;;;;;10.93;6.57;;;11.50;99.50;;;;;;4992763;28;20117;-66
2021/10/07 04:00:36;;;;;;;10.57;6.70;;;11.50;99.50;;;;;;5001630;28;20080;-67
2021/10/07 04:03:03;;;;;;;9.32;6.80;;;11.50;99.50;;;;;;5011312;28;20026;-66
2021/10/07 04:05:28;;;;;;;9.68;6.75;;;11.50;99.50;;;;;;5009254;28;20030;-66
2021/10/07 04:07:54;;;;;;;9.07;6.00;;;11.50;99.60;;;;;;5003124;28;20099;-66
2021/10/07 04:10:19;;;;;;;12.27;6.95;;;11.40;99.60;;;;;;5004058;28;20026;-66
2021/10/07 04:12:45;;;;;;;11.55;6.43;;;11.40;99.70;;;;;;5009178;28;20030;-67
2021/10/07 04:15:10;;;;;;;9.57;7.00;;;11.40;99.70;;;;;;5007687;28;20029;-66
2021/10/07 04:17:36;;;;;;;8.57;6.63;;;11.40;99.80;;;;;;5011178;28;20036;-66
2021/10/07 04:20:02;;;;;;;9.80;7.28;;;11.40;99.80;;;;;;5011211;28;20049;-66
2021/10/07 04:22:28;;;;;;;8.95;6.40;;;11.40;99.80;;;;;;5008854;28;20475;-66
2021/10/07 04:24:55;;;;;;;10.60;6.18;;;11.40;99.90;;;;;;5006013;28;20145;-66
2021/10/07 04:27:21;;;;;;;8.45;5.95;;;11.40;99.90;;;;;;5007212;28;20096;-66
2021/10/07 04:29:46;;;;;;;9.13;6.55;;;11.40;99.90;;;;;;5010829;28;20449;-66
2021/10/07 04:32:12;;;;;;;10.15;6.20;;;11.40;99.90;;;;;;5010616;28;20044;-66
2021/10/07 04:34:37;;;;;;;9.02;6.03;;;11.40;99.90;;;;;;5003853;28;20041;-66
2021/10/07 04:37:03;;;;;;;10.40;6.90;;;11.40;99.90;;;;;;5003292;28;20396;-66
2021/10/07 04:39:28;;;;;;;8.32;6.15;;;11.40;99.90;;;;;;5010708;28;20038;-66
2021/10/07 04:41:55;;;;;;;11.73;6.82;;;11.30;99.90;;;;;;5010203;28;20068;-66
2021/10/07 04:44:20;;;;;;;11.68;7.22;;;11.40;99.90;;;;;;5007963;28;20469;-66
2021/10/07 04:46:46;;;;;;;11.63;7.13;;;11.40;99.90;;;;;;5010007;28;20095;-66
2021/10/07 04:49:11;;;;;;;10.65;6.80;;;11.40;99.90;;;;;;5010094;28;20049;-66
2021/10/07 04:51:37;;;;;;;12.45;6.85;;;11.40;99.90;;;;;;5011675;28;20101;-66
2021/10/07 04:54:03;;;;;;;10.20;6.85;;;11.50;99.90;;;;;;5008823;28;20080;-66
2021/10/07 04:56:28;;;;;;;11.45;6.53;;;11.50;99.90;;;;;;5009489;28;20055;-66
2021/10/07 04:58:56;;;;;;;9.88;6.00;;;11.50;99.80;;;;;;5008882;28;20036;-66
2021/10/07 05:01:22;;;;;;;11.40;6.80;;;11.50;99.90;;;;;;5007583;28;20491;-66
2021/10/07 05:03:48;;;;;;;9.80;6.22;;;11.40;99.80;;;;;;5012227;28;20057;-66
2021/10/07 05:06:14;;;;;;;8.98;6.13;;;11.40;99.80;;;;;;5007516;28;20025;-66
2021/10/07 05:08:39;;;;;;;11.80;6.32;;;11.40;99.80;;;;;;5015427;28;20034;-66
2021/10/07 05:11:05;;;;;;;8.20;6.10;;;11.40;99.80;;;;;;5012898;28;20033;-66
2021/10/07 05:13:31;;;;;;;9.93;6.82;;;11.40;99.70;;;;;;5000323;28;20486;-66
2021/10/07 05:15:57;;;;;;;10.38;6.43;;;11.40;99.70;;;;;;5006747;28;20034;-66
2021/10/07 05:18:23;;;;;;;8.00;6.13;;;11.30;99.70;;;;;;5013984;28;20092;-66
2021/10/07 05:20:50;;;;;;;13.20;6.75;;;11.40;99.70;;;;;;5001626;28;20513;-66
2021/10/07 05:23:16;;;;;;;10.15;6.45;;;11.30;99.70;;;;;;5004285;28;20053;-66
2021/10/07 05:25:41;;;;;;;11.10;6.03;;;11.30;99.70;;;;;;5011664;28;20072;-66
2021/10/07 05:28:07;;;;;;;8.85;6.00;;;11.30;99.60;;;;;;5014551;28;20041;-67
2021/10/07 05:30:33;;;;;;;9.27;6.85;;;11.30;99.70;;;;;;5002228;28;20027;-66
2021/10/07 05:32:58;;;;;;;10.57;7.15;;;11.30;99.70;;;;;;5006264;28;20112;-66
2021/10/07 05:35:24;;;;;;;11.57;6.75;;;11.30;99.80;;;;;;5004085;28;20022;-66
2021/10/07 05:37:49;;;;;;;12.27;7.22;;;11.30;99.80;;;;;;5010144;28;20477;-66
2021/10/07 05:40:15;;;;;;;8.27;6.43;;;11.30;99.80;;;;;;5013786;28;20026;-65
2021/10/07 05:42:41;;;;;;;11.23;7.75;;;11.30;99.80;;;;;;5013697;28;20030;-66
2021/10/07 05:45:10;;;;;;;12.68;7.03;;;11.30;99.80;;;;;;5001922;28;20029;-66
2021/10/07 05:47:37;;;;;;;12.35;8.13;;;11.30;99.90;;;;;;5007682;28;20530;-69
2021/10/07 05:50:03;;;;;;;16.23;7.25;;;11.30;99.90;;;;;;5001887;28;20018;-68
2021/10/07 05:52:28;;;;;;;7.72;6.13;;;11.40;99.80;;;;;;5003664;28;20394;-68
2021/10/07 05:54:53;;;;;;;9.48;6.13;;;11.40;99.80;;;;;;5005284;28;20046;-69
2021/10/07 05:57:19;;;;;;;9.93;6.57;;;11.40;99.80;;;;;;5001925;28;20018;-68
2021/10/07 05:59:44;;;;;;;9.10;6.65;;;11.40;99.80;;;;;;4994885;28;20145;-68
2021/10/07 06:02:10;;;;;;;12.15;6.60;;;11.40;99.90;;;;;;5007661;28;20125;-67
2021/10/07 06:04:35;;;;;;;11.95;7.30;;;11.30;99.90;;;;;;5002899;28;20128;-67
2021/10/07 06:07:01;;;;;;;10.43;6.82;;;11.40;99.90;;;;;;5004833;28;20038;-67
2021/10/07 06:09:26;;;;;;;9.10;6.35;;;11.40;99.90;;;;;;4995433;28;20022;-68
2021/10/07 06:11:52;;;;;;;13.05;8.77;;;11.40;99.90;;;;;;5006324;28;20287;-67
2021/10/07 06:14:18;;;;;;;12.15;7.15;;;11.50;99.90;;;;;;5009492;28;20049;-69
2021/10/07 06:16:43;;;;;;;9.35;6.25;;;11.50;99.90;;;;;;4999223;28;20037;-68
2021/10/07 06:19:12;;;;;;;10.98;6.93;;;11.60;99.90;;;;;;5006502;28;20022;-66
2021/10/07 06:21:38;;;;;;;9.93;6.57;;;11.60;99.90;;;;;;5003112;28;20030;-65
2021/10/07 06:24:04;;;;;;;9.32;6.63;;;11.60;99.90;;;;;;5018237;28;20670;-67
2021/10/07 06:26:29;;;;;;;9.45;6.88;;;11.70;99.90;;;;;;4998978;28;20049;-67
2021/10/07 06:28:55;;;;;;;12.60;8.68;;;11.70;99.90;;;;;;5003949;28;20029;-67
2021/10/07 06:31:20;;;;;;;13.35;6.88;;;11.80;99.90;;;;;;5002139;28;20018;-66
2021/10/07 06:33:47;;;;;;;10.55;6.80;;;11.80;99.90;;;;;;5003263;28;20039;-66
2021/10/07 06:36:13;;;;;;;8.52;6.47;;;11.90;99.90;;;;;;5007407;28;20028;-67
2021/10/07 06:38:38;;;;;;;10.40;6.70;;;12.00;99.90;;;;;;5000711;28;20124;-67
2021/10/07 06:41:04;;;;;;;11.05;6.72;;;11.90;99.90;;;;;;5004089;28;20022;-67
2021/10/07 06:43:30;;;;;;;11.98;7.13;;;12.00;99.90;;;;;;5006540;28;20053;-67
2021/10/07 06:45:55;;;;;;;15.90;8.38;;;12.10;99.90;;;;;;5010700;28;20018;-66
2021/10/07 06:48:21;;;;;;;12.18;8.40;;;12.10;99.90;;;;;;4998072;28;20442;-66
2021/10/07 06:50:46;;;;;;;14.55;7.97;;;12.20;99.90;;;;;;5001917;28;20022;-66
2021/10/07 06:53:12;;;;;;;15.68;8.55;;;12.20;99.90;;;;;;5001034;28;20121;-66
2021/10/07 06:55:38;;;;;;;11.23;8.32;;;12.30;99.90;;;;;;5004842;28;20053;-66
2021/10/07 06:58:04;;;;;;;14.02;8.15;;;12.30;99.90;;;;;;5000449;28;20038;-66
2021/10/07 07:00:30;;;;;;;11.35;7.90;;;12.40;99.90;;;;;;5006091;28;20026;-66
2021/10/07 07:02:58;;;;;;;14.68;8.05;;;12.40;99.90;;;;;;5001641;28;20052;-66
2021/10/07 07:05:24;;;;;;;14.23;7.82;;;12.40;99.90;;;;;;5003696;28;20022;-66
2021/10/07 07:07:50;;;;;;;15.55;8.57;;;12.50;99.90;;;;;;5004249;28;20080;-67
2021/10/07 07:10:18;;;;;;;13.52;9.27;;;12.60;99.90;;;;;;5009890;28;20101;-66
2021/10/07 07:12:48;;;;;;;27.42;9.77;;;12.60;99.90;;;;;;5002152;28;20025;-66
2021/10/07 07:15:14;;;;;;;12.60;8.63;;;12.70;99.90;;;;;;4996305;28;20368;-66
2021/10/07 07:17:40;;;;;;;16.80;7.55;;;12.70;99.90;;;;;;5009287;28;20037;-66
2021/10/07 07:20:07;;;;;;;13.75;8.23;;;12.70;99.80;;;;;;5003035;28;20022;-66
2021/10/07 07:22:33;;;;;;;12.27;8.07;;;12.80;99.80;;;;;;5007005;28;20040;-66
2021/10/07 07:24:58;;;;;;;11.05;8.50;;;12.80;99.70;;;;;;5006028;28;20022;-65
2021/10/07 07:27:24;;;;;;;11.55;7.97;;;12.90;99.80;;;;;;4998512;28;20038;-66
2021/10/07 07:29:50;;;;;;;12.25;8.52;;;12.90;99.70;;;;;;5004215;28;20478;-66
2021/10/07 07:32:16;;;;;;;12.02;8.80;;;12.90;99.70;;;;;;5002201;28;20550;-66
2021/10/07 07:34:41;;;;;;;12.10;8.00;;;13.00;99.70;;;;;;5004572;28;20030;-66
2021/10/07 07:37:07;;;;;;;10.30;7.97;;;13.10;99.60;;;;;;5000291;28;20019;-66
2021/10/07 07:39:33;;;;;;;13.40;8.07;;;13.10;99.60;;;;;;5007606;28;20269;-66
2021/10/07 07:41:59;;;;;;;13.00;7.63;;;13.10;99.60;;;;;;5010018;28;20018;-66
2021/10/07 07:44:26;;;;;;;13.38;9.10;;;13.20;99.60;;;;;;4993671;28;20036;-66
2021/10/07 07:46:51;;;;;;;11.63;7.57;;;13.20;99.60;;;;;;5002211;28;20030;-67
2021/10/07 07:49:17;;;;;;;13.40;8.55;;;13.30;99.50;;;;;;5002966;28;20080;-66
2021/10/07 07:51:42;;;;;;;15.13;9.80;;;13.30;99.50;;;;;;5003110;28;20616;-66
2021/10/07 07:54:08;;;;;;;14.10;10.57;;;13.40;99.50;;;;;;5002733;28;20046;-66
2021/10/07 07:56:33;;;;;;;14.85;9.43;;;13.50;99.50;;;;;;4993154;28;20045;-66
2021/10/07 07:58:59;;;;;;;13.55;9.60;;;13.50;99.40;;;;;;5003786;28;20123;-65
2021/10/07 08:01:25;;;;;;;11.85;8.52;;;13.60;99.40;;;;;;5001432;28;20018;-66
2021/10/07 08:03:51;;;;;;;17.77;10.10;;;13.60;99.20;;;;;;5009331;28;20503;-66
2021/10/07 08:06:16;;;;;;;13.63;8.70;;;13.70;99.10;;;;;;5005906;28;20382;-67
2021/10/07 08:08:42;;;;;;;14.27;9.65;;;13.70;99.10;;;;;;4999119;28;20046;-67
2021/10/07 08:11:07;;;;;;;15.52;9.35;;;13.80;99.20;;;;;;4998882;28;20018;-67
2021/10/07 08:13:33;;;;;;;15.52;10.43;;;13.90;99.20;;;;;;5005641;28;20096;-67
2021/10/07 08:15:59;;;;;;;19.08;12.23;;;13.90;99.20;;;;;;5007500;28;20025;-67
2021/10/07 08:18:24;;;;;;;16.02;8.98;;;14.00;99.30;;;;;;5005591;28;20097;-67
2021/10/07 08:20:52;;;;;;;16.25;9.05;;;14.00;99.10;;;;;;5000501;28;20033;-67
2021/10/07 08:23:22;;;;;;;13.05;8.60;;;14.10;99.10;;;;;;5006714;28;20152;-67
2021/10/07 08:25:47;;;;;;;11.98;8.13;;;14.10;99.00;;;;;;5001613;28;20380;-67
2021/10/07 08:28:13;;;;;;;11.88;7.18;;;14.20;98.90;;;;;;5005885;28;20052;-67
2021/10/07 08:30:38;;;;;;;11.10;8.30;;;14.30;98.60;;;;;;5002913;28;20022;-68
2021/10/07 08:33:04;;;;;;;9.43;6.97;;;14.30;98.50;;;;;;5008849;28;20046;-68
2021/10/07 08:35:30;;;;;;;12.50;7.60;;;14.30;98.30;;;;;;5000230;28;20442;-67
2021/10/07 08:37:55;;;;;;;13.15;6.90;;;14.30;98.20;;;;;;5002557;28;20121;-70
2021/10/07 08:40:21;;;;;;;11.65;6.93;;;14.40;98.20;;;;;;5008676;28;20172;-70
2021/10/07 08:42:47;;;;;;;9.20;6.32;;;14.50;98.10;;;;;;5010975;28;20505;-70
2021/10/07 08:45:13;;;;;;;9.65;6.18;;;14.60;97.90;;;;;;5007717;28;20034;-70
2021/10/07 08:47:41;;;;;;;11.27;7.25;;;14.70;98.00;;;;;;5004205;28;20034;-71
2021/10/07 08:50:11;;;;;;;15.55;7.93;;;14.80;97.70;;;;;;5012188;28;20056;-71
2021/10/07 08:52:36;;;;;;;10.68;7.75;;;14.90;97.40;;;;;;5003454;28;20038;-71
2021/10/07 08:55:03;;;;;;;11.90;7.28;;;14.90;97.40;;;;;;5003003;28;20112;-69
2021/10/07 08:57:28;;;;;;;12.07;6.55;;;14.90;97.20;;;;;;5012240;28;20108;-71
2021/10/07 08:59:54;;;;;;;9.32;5.55;;;15.00;97.40;;;;;;5007223;28;20022;-72
2021/10/07 09:02:30;;;;;;;8.43;4.78;;;15.10;97.20;;;;;;5005848;28;20133;-72
2021/10/07 09:05:13;;;;;;;8.27;4.63;;;15.00;96.70;;;;;;5011649;28;20474;-69
2021/10/07 09:08:02;;;;;;;7.47;4.50;;;15.00;96.50;;;;;;5005432;28;20064;-70
2021/10/07 09:10:51;;;;;;;7.57;4.13;;;15.10;96.40;;;;;;5010369;28;20065;-70
2021/10/07 09:13:23;;;;;;;8.40;4.60;;;15.10;96.20;;;;;;5011741;28;20033;-69
2021/10/07 09:15:50;;;;;;;8.50;5.20;;;15.10;96.00;;;;;;5004219;28;20069;-70
2021/10/07 09:18:17;;;;;;;7.43;5.13;;;15.10;96.00;;;;;;5005040;28;20386;-70
2021/10/07 09:20:49;;;;;;;10.20;5.05;;;15.10;96.00;;;;;;4994023;28;20034;-70
2021/10/07 09:23:30;;;;;;;10.35;5.13;;;15.10;96.00;;;;;;4998435;28;20042;-70
2021/10/07 09:26:06;;;;;;;10.02;5.45;;;15.10;96.00;;;;;;5000867;28;20034;-69
2021/10/07 09:28:58;;;;;;;10.30;4.53;;;15.20;96.00;;;;;;4997893;28;20030;-69
2021/10/07 09:31:34;;;;;;;7.70;4.82;;;15.20;95.80;;;;;;5002051;28;20103;-69
2021/10/07 09:34:05;;;;;;;6.88;4.82;;;15.30;95.70;;;;;;5014474;28;20447;-69
2021/10/07 09:36:32;;;;;;;8.75;4.75;;;15.30;95.60;;;;;;5013822;28;20091;-69
2021/10/07 09:38:59;;;;;;;9.30;4.63;;;15.40;95.70;;;;;;5012888;28;20088;-71
2021/10/07 09:41:27;;;;;;;8.05;4.35;;;15.50;95.70;;;;;;4993874;28;20034;-70
2021/10/07 09:43:57;;;;;;;8.80;5.97;;;15.60;95.50;;;;;;5004052;28;20030;-70
2021/10/07 09:46:46;;;;;;;8.77;4.90;;;15.70;95.60;;;;;;5014686;28;20030;-70
2021/10/07 09:49:21;;;;;;;7.57;5.00;;;15.80;95.40;;;;;;5014672;28;20120;-70
2021/10/07 09:51:55;;;;;;;8.23;4.30;;;15.80;95.20;;;;;;5014818;28;20057;-75
2021/10/07 09:54:26;;;;;;;8.45;4.63;;;15.90;94.90;;;;;;5014388;28;20054;-72
2021/10/07 09:56:57;;;;;;;9.85;5.40;;;15.90;94.80;;;;;;5004619;28;20068;-72
2021/10/07 09:59:24;;;;;;;7.80;3.97;;;15.90;94.90;;;;;;5017152;28;20026;-72
2021/10/07 10:01:54;;;;;;;6.30;3.95;;;15.90;94.80;;;;;;5012894;28;20057;-72
2021/10/07 10:04:20;;;;;;;8.90;3.85;;;16.00;94.60;;;;;;5013440;28;20053;-71
2021/10/07 10:06:46;;;;;;;7.70;4.45;;;16.00;94.40;;;;;;5013912;28;20474;-72
2021/10/07 10:09:12;;;;;;;5.38;3.00;;;16.10;94.30;;;;;;5010802;28;20676;-71
2021/10/07 10:11:41;;;;;;;5.20;3.53;;;16.20;94.70;;;;;;5014361;28;20018;-72
2021/10/07 10:14:07;;;;;;;7.38;3.85;;;16.40;93.90;;;;;;5011468;28;20421;-72
2021/10/07 10:16:36;;;;;;;8.18;3.88;;;16.40;93.90;;;;;;4999350;28;20121;-72
2021/10/07 10:19:03;;;;;;;8.48;4.00;;;16.40;93.70;;;;;;5012084;28;20036;-72
2021/10/07 10:21:33;;;;;;;7.20;4.20;;;16.40;93.60;;;;;;5013793;28;20022;-72
2021/10/07 10:24:01;;;;;;;8.25;3.70;;;16.50;93.90;;;;;;5002314;28;20034;-72
2021/10/07 10:26:27;;;;;;;7.00;3.58;;;16.50;93.50;;;;;;5012333;28;20105;-72
2021/10/07 10:28:53;;;;;;;7.75;3.70;;;16.60;93.60;;;;;;5012165;28;20263;-71
2021/10/07 10:31:27;;;;;;;5.10;3.17;;;16.50;93.40;;;;;;5009226;28;20026;-71
2021/10/07 10:34:04;;;;;;;;;;;16.60;92.90;;;;;;5013568;28;20068;-72
2021/10/07 10:36:36;;;;;;;5.50;2.33;;;16.60;93.20;;;;;;5011175;28;19992;-71
2021/10/07 10:39:04;;;;;;;6.15;2.78;;;16.60;92.90;;;;;;5013978;28;20433;-71
2021/10/07 10:41:52;;;;;;;6.55;3.20;;;16.70;92.70;;;;;;5010684;28;20541;-71
2021/10/07 10:44:27;;;;;;;3.75;2.28;;;16.70;92.30;;;;;;5009413;28;20385;-71
2021/10/07 10:47:07;;;;;;;5.43;2.33;;;16.80;92.40;;;;;;5011576;28;20030;-71
2021/10/07 10:49:51;;;;;;;5.85;3.13;;;16.80;92.30;;;;;;5012240;28;20558;-73
2021/10/07 10:52:21;;;;;;;4.53;2.78;;;16.80;92.20;;;;;;5011149;28;20033;-71
2021/10/07 10:54:58;;;;;;;6.10;3.00;;;16.80;92.00;;;;;;5007681;28;20525;-71
2021/10/07 10:58:10;;;;;;;7.22;2.90;;;16.90;92.30;;;;;;4998183;28;20065;-71
2021/10/07 11:00:45;;;;;;;7.32;3.25;;;17.00;91.90;;;;;;4974127;28;20501;-71
2021/10/07 11:03:14;;;;;;;3.92;2.90;;;17.10;91.80;;;;;;5010393;28;20113;-71
2021/10/07 11:06:03;;;;;;;5.13;2.80;;;17.20;91.80;;;;;;5012152;28;20025;-71
2021/10/07 11:08:30;;;;;;;10.50;3.25;;;17.30;92.00;;;;;;5005112;28;20048;-72
2021/10/07 11:10:57;;;;;;;7.30;2.88;;;17.40;91.90;;;;;;5012404;28;20482;-71
2021/10/07 11:13:29;;;;;;;3.80;2.50;;;17.40;91.40;;;;;;5013227;28;20072;-71
2021/10/07 11:16:01;;;;;;;4.70;2.95;;;17.50;91.10;;;;;;5011834;28;20080;-72
2021/10/07 11:18:32;;;;;;;3.85;2.60;;;17.50;90.70;;;;;;5002442;28;20037;-71
2021/10/07 11:21:11;;;;;;;3.72;2.20;;;17.50;90.70;;;;;;5008222;28;20080;-70
2021/10/07 11:23:37;;;;;;;5.50;2.38;;;17.60;90.60;;;;;;4993279;28;20035;-70
2021/10/07 11:26:03;;;;;;;4.00;2.65;;;17.60;90.50;;;;;;5011081;28;20087;-71
2021/10/07 11:28:39;;;;;;;4.65;2.58;;;17.60;90.10;;;;;;5009702;28;20044;-71
2021/10/07 11:31:11;;;;;;;5.35;2.60;;;17.70;90.20;;;;;;5010150;28;20049;-71
2021/10/07 11:33:42;;;;;;;7.22;2.85;;;17.70;90.30;;;;;;5013772;28;20430;-71
2021/10/07 11:36:11;;;;;;;5.72;3.10;;;17.70;90.30;;;;;;5021385;28;20126;-71
2021/10/07 11:38:41;;;;;;;4.70;2.65;;;17.70;90.00;;;;;;5011775;28;20034;-72
2021/10/07 11:41:08;;;;;;;5.35;3.15;;;17.80;90.00;;;;;;5001134;28;20803;-72
2021/10/07 11:43:35;;;;;;;7.70;3.47;;;17.80;89.80;;;;;;5021709;28;20033;-71
2021/10/07 11:46:06;;;;;;;4.65;3.20;;;17.80;88.50;;;;;;5010102;28;20060;-72
2021/10/07 11:48:31;;;;;;;5.60;3.20;;;17.90;88.20;;;;;;5020386;28;20041;-71
2021/10/07 11:51:03;;;;;;;5.47;3.35;;;17.90;88.40;;;;;;5017472;28;20029;-71
2021/10/07 11:53:35;;;;;;;6.72;2.85;;;17.90;88.20;;;;;;5013550;28;20025;-72
2021/10/07 11:56:14;;;;;;;5.53;3.25;;;18.00;88.40;;;;;;5001780;28;20180;-73
2021/10/07 11:58:40;;;;;;;5.72;3.60;;;18.00;88.60;;;;;;5011708;28;20510;-72
2021/10/07 12:01:08;;;;;;;4.53;3.17;;;18.10;88.40;;;;;;5012351;28;20026;-72
2021/10/07 12:03:36;;;;;;;5.63;3.50;;;18.10;88.10;;;;;;5011406;28;20383;-75
2021/10/07 12:06:13;;;;;;;5.75;3.20;;;18.20;87.70;;;;;;5012037;28;20025;-73
2021/10/07 12:08:40;;;;;;;4.10;2.78;;;18.20;87.60;;;;;;5009754;28;20038;-73
2021/10/07 12:11:14;;;;;;;11.80;4.05;;;18.30;87.20;;;;;;5012033;28;20026;-73
2021/10/07 12:13:45;;;;;;;7.28;2.95;;;18.40;86.90;;;;;;4998179;28;20034;-73
2021/10/07 12:16:26;;;;;;;6.75;4.28;;;18.40;86.40;;;;;;5012319;28;20030;-73
2021/10/07 12:18:57;;;;;;;5.70;3.15;;;18.40;87.10;;;;;;5010952;28;20030;-74
2021/10/07 12:21:25;;;;;;;5.22;2.42;;;18.40;86.80;;;;;;5010993;28;20033;-73
2021/10/07 12:24:01;;;;;;;4.88;2.83;;;18.50;85.40;;;;;;5009737;28;20033;-73
2021/10/07 12:26:48;;;;;;;4.53;2.90;;;18.50;85.30;;;;;;5010896;28;20029;-73
2021/10/07 12:29:19;;;;;;;7.30;3.03;;;18.60;85.10;;;;;;5006167;28;20042;-72
2021/10/07 12:31:56;;;;;;;4.63;2.45;;;18.60;85.10;;;;;;4992447;28;20041;-72
2021/10/07 12:34:30;;;;;;;3.13;1.67;;;18.50;83.50;;;;;;4998596;28;20609;-72
2021/10/07 12:36:58;;;;;;;4.53;2.60;;;18.50;82.70;;;;;;4992684;28;20034;-72
2021/10/07 12:39:50;;;;;;;3.40;2.30;;;18.60;82.40;;;;;;4999491;28;20034;-72
2021/10/07 12:42:21;;;;;;;4.55;1.75;;;18.60;81.80;;;;;;4994292;28;20030;-72
2021/10/07 12:44:55;;;;;;;3.17;2.00;;;18.50;80.70;;;;;;5006301;28;20359;-72
2021/10/07 12:47:30;;;;;;;3.80;1.83;;;18.50;80.50;;;;;;5007176;28;20042;-71
2021/10/07 12:49:56;;;;;;;;;;;18.50;79.60;;;;;;5011441;28;20026;-73
2021/10/07 12:52:29;;;;;;;4.30;2.00;;;18.50;81.70;;;;;;5011854;28;19920;-72